Terminal Aerodrome Forecast
Issued by NWS Salt Lake City, UT

Home | Current Version | Previous Version | Text Only | Print | Product List | Glossary On
Versions: 1 2 3 4 5 6 7 8 9 10 11 12 13 14 15 16 17 18 19 20 21 22 23 24 25 26 27
000
FTUS45 KSLC 310529
TAFSLC
TAF
KSLC 310529Z 3106/0112 13006KT P6SM FEW100 BKN150
     FM311600 18013G18KT P6SM SCT150
     FM312000 34008KT P6SM SCT080 BKN150
     FM010400 14006KT P6SM FEW150=

USA.gov is the U.S. government's official web portal to all federal, state and local government web resources and services.